createdAt,value
2022-08-10T00:00:08.190Z,16.20
2022-08-10T00:02:36.280Z,18.88
2022-08-10T00:05:04.786Z,19.60
2022-08-10T00:07:32.997Z,20.13
2022-08-10T00:10:00.776Z,20.30
2022-08-10T00:12:53.715Z,20.80
2022-08-10T00:15:44.682Z,19.25
2022-08-10T00:18:05.316Z,20.40
2022-08-10T00:20:33.126Z,19.40
2022-08-10T00:23:00.905Z,19.33
2022-08-10T00:25:28.850Z,19.70
2022-08-10T00:28:03.513Z,19.38
2022-08-10T00:30:32.087Z,21.17
2022-08-10T00:32:59.903Z,19.85
2022-08-10T00:35:28.093Z,19.98
2022-08-10T00:37:56.432Z,20.52
2022-08-10T00:40:37.841Z,21.85
2022-08-10T00:43:06.993Z,21.35
2022-08-10T00:45:35.739Z,20.85
2022-08-10T00:48:03.688Z,20.95
2022-08-10T00:50:31.451Z,20.58
2022-08-10T00:52:59.230Z,21.30
2022-08-10T00:55:26.943Z,21.10
2022-08-10T00:57:55.653Z,20.88
2022-08-10T01:00:24.455Z,20.98
2022-08-10T01:02:52.892Z,22.42
2022-08-10T01:05:20.875Z,21.85
2022-08-10T01:08:07.976Z,21.63
2022-08-10T01:10:41.543Z,21.80
2022-08-10T01:13:31.278Z,22.20
2022-08-10T01:16:15.584Z,21.45
2022-08-10T01:18:43.912Z,22.65
2022-08-10T01:21:57.198Z,22.65
2022-08-10T01:24:49.885Z,22.55
2022-08-10T01:27:29.870Z,23.33
2022-08-10T01:30:02.055Z,23.55
2022-08-10T01:32:42.583Z,22.73
2022-08-10T01:35:18.017Z,22.58
2022-08-10T01:37:56.170Z,22.38
2022-08-10T01:40:25.974Z,21.90
2022-08-10T01:42:55.939Z,22.55
2022-08-10T01:45:27.481Z,21.70
2022-08-10T01:48:16.383Z,23.13
2022-08-10T01:50:59.600Z,21.77
2022-08-10T01:53:52.267Z,22.65
2022-08-10T01:56:21.654Z,22.38
2022-08-10T01:58:51.652Z,21.42
2022-08-10T02:01:21.194Z,23.58
2022-08-10T02:04:04.872Z,23.23
2022-08-10T02:06:45.575Z,22.63
2022-08-10T02:09:14.826Z,23.42
2022-08-10T02:12:07.888Z,23.50
2022-08-10T02:14:34.585Z,23.85
2022-08-10T02:17:04.571Z,24.88
2022-08-10T02:19:33.150Z,23.85
2022-08-10T02:22:35.320Z,24.02
2022-08-10T02:24:48.643Z,24.73
2022-08-10T02:27:18.159Z,23.35
2022-08-10T02:29:45.827Z,24.45
2022-08-10T02:32:21.097Z,23.27
2022-08-10T02:35:04.598Z,24.45
2022-08-10T02:37:32.347Z,24.05
2022-08-10T02:40:00.120Z,25.20
2022-08-10T02:45:24.705Z,24.83
2022-08-10T02:45:57.325Z,24.15
2022-08-10T02:48:28.114Z,24.23
2022-08-10T02:50:59.101Z,24.23
2022-08-10T02:53:56.608Z,24.52
2022-08-10T02:56:25.967Z,24.70
2022-08-10T02:59:12.073Z,23.90
2022-08-10T03:01:46.845Z,23.15
2022-08-10T03:04:20.905Z,23.02
2022-08-10T03:07:10.552Z,23.02
2022-08-10T03:09:38.992Z,23.60
2022-08-10T03:12:36.100Z,25.05
2022-08-10T03:14:57.102Z,24.45
2022-08-10T03:17:24.743Z,24.45
2022-08-10T03:20:35.673Z,24.33
2022-08-10T03:22:41.358Z,24.38
2022-08-10T03:25:10.357Z,26.20
2022-08-10T03:27:39.455Z,24.27
2022-08-10T03:30:28.562Z,24.85
2022-08-10T03:32:55.405Z,25.60
2022-08-10T03:35:23.193Z,23.63
2022-08-10T03:37:50.873Z,24.95
2022-08-10T03:40:46.056Z,24.77
2022-08-10T03:43:16.201Z,24.50
2022-08-10T03:45:48.560Z,24.75
2022-08-10T03:48:32.333Z,23.75
2022-08-10T03:51:14.580Z,22.83
2022-08-10T03:54:03.438Z,22.95
2022-08-10T03:56:32.443Z,22.52
2022-08-10T03:59:01.537Z,22.60
2022-08-10T04:02:43.691Z,23.70
2022-08-10T04:04:22.749Z,23.65
2022-08-10T04:06:56.454Z,22.20
2022-08-10T04:09:43.172Z,24.60
2022-08-10T04:12:17.286Z,23.38
2022-08-10T04:14:51.589Z,24.20
2022-08-10T04:18:00.162Z,25.40
2022-08-10T04:20:42.932Z,25.00
2022-08-10T04:23:14.285Z,24.73
2022-08-10T04:25:41.969Z,24.52
2022-08-10T04:28:09.621Z,23.15
2022-08-10T04:30:38.633Z,23.98
2022-08-10T04:33:07.244Z,22.00
2022-08-10T04:35:35.237Z,22.67
2022-08-10T04:38:03.628Z,23.17
2022-08-10T04:40:32.327Z,23.98
2022-08-10T04:43:10.826Z,24.73
2022-08-10T04:45:49.246Z,25.67
2022-08-10T04:48:41.388Z,25.50
2022-08-10T04:51:18.420Z,24.88
2022-08-10T04:54:04.022Z,25.35
2022-08-10T04:56:35.094Z,24.83
2022-08-10T04:59:03.013Z,25.23
2022-08-10T05:02:21.176Z,24.08
2022-08-10T05:04:35.097Z,24.23
2022-08-10T05:07:17.019Z,25.38
2022-08-10T05:10:01.332Z,25.25
2022-08-10T05:12:39.595Z,24.88
2022-08-10T05:15:15.677Z,23.52
2022-08-10T05:18:08.745Z,25.60
2022-08-10T05:20:41.936Z,24.55
2022-08-10T05:28:10.417Z,26.63
2022-08-10T05:30:41.086Z,26.38
2022-08-10T05:33:12.954Z,26.23
2022-08-10T05:35:56.702Z,26.23
2022-08-10T05:38:28.442Z,26.70
2022-08-10T05:40:57.024Z,25.85
2022-08-10T05:43:25.027Z,26.05
2022-08-10T05:46:17.102Z,26.67
2022-08-10T05:48:59.668Z,25.60
2022-08-10T05:51:30.674Z,26.48
2022-08-10T05:54:05.698Z,25.95
2022-08-10T05:56:53.871Z,26.63
2022-08-10T06:00:30.782Z,24.88
2022-08-10T06:02:35.700Z,24.50
2022-08-10T06:05:14.279Z,25.50
2022-08-10T06:07:59.863Z,24.95
2022-08-10T06:10:31.987Z,25.83
2022-08-10T06:13:30.087Z,26.08
2022-08-10T06:16:09.638Z,25.50
2022-08-10T06:18:38.635Z,25.02
2022-08-10T06:21:09.951Z,25.42
2022-08-10T06:23:43.409Z,26.60
2022-08-10T06:26:15.584Z,25.13
2022-08-10T06:29:03.080Z,24.42
2022-08-10T06:31:48.690Z,26.23
2022-08-10T06:34:24.241Z,25.25
2022-08-10T06:36:53.686Z,24.90
2022-08-10T06:39:36.407Z,24.88
2022-08-10T06:42:18.306Z,24.05
2022-08-10T06:45:04.973Z,23.90
2022-08-10T06:48:03.472Z,23.77
2022-08-10T06:50:58.357Z,24.45
2022-08-10T06:53:53.071Z,24.38
2022-08-10T06:56:37.889Z,23.45
2022-08-10T06:59:13.346Z,23.67
2022-08-10T07:02:00.708Z,23.00
2022-08-10T07:04:54.191Z,23.95
2022-08-10T07:07:25.883Z,23.20
2022-08-10T07:09:59.853Z,23.52
2022-08-10T07:12:28.227Z,23.70
2022-08-10T07:14:57.740Z,24.60
2022-08-10T07:17:27.439Z,22.55
2022-08-10T07:19:59.429Z,21.40
2022-08-10T07:23:54.448Z,20.73
2022-08-10T07:25:26.336Z,22.15
2022-08-10T07:27:58.805Z,21.38
2022-08-10T07:30:37.580Z,21.98
2022-08-10T07:33:09.967Z,20.23
2022-08-10T07:35:42.418Z,20.08
2022-08-10T07:38:27.670Z,21.58
2022-08-10T07:40:59.176Z,19.75
2022-08-10T07:46:09.562Z,20.35
2022-08-10T07:48:57.287Z,19.90
2022-08-10T07:51:34.837Z,21.33
2022-08-10T07:54:16.088Z,20.35
2022-08-10T07:56:49.185Z,21.88
2022-08-10T07:59:19.286Z,21.35
2022-08-10T08:01:55.222Z,20.10
2022-08-10T08:04:24.761Z,20.40
2022-08-10T08:06:54.216Z,20.95
2022-08-10T08:09:22.589Z,20.77
2022-08-10T08:11:50.673Z,22.50
2022-08-10T08:14:20.235Z,22.15
2022-08-10T08:16:59.409Z,20.83
2022-08-10T08:19:37.795Z,19.98
2022-08-10T08:24:06.840Z,19.33
2022-08-10T08:25:12.867Z,19.48
2022-08-10T08:27:47.849Z,20.02
2022-08-10T08:30:26.690Z,20.13
2022-08-10T08:33:47.075Z,19.40
2022-08-10T08:36:21.358Z,18.83
2022-08-10T08:38:49.604Z,19.17
2022-08-10T08:41:33.154Z,19.08
2022-08-10T08:44:13.439Z,20.35
2022-08-10T08:48:04.687Z,19.35
2022-08-10T08:50:26.211Z,18.75
2022-08-10T08:53:00.096Z,18.38
2022-08-10T08:56:03.091Z,18.05
2022-08-10T08:58:59.652Z,17.83
2022-08-10T09:02:05.712Z,18.63
2022-08-10T09:05:00.715Z,18.83
2022-08-10T09:08:01.723Z,18.55
2022-08-10T09:10:54.834Z,19.23
2022-08-10T09:13:27.433Z,17.92
2022-08-10T09:16:09.669Z,17.25
2022-08-10T09:18:42.894Z,18.23
2022-08-10T09:21:22.104Z,18.25
2022-08-10T09:24:27.289Z,18.08
2022-08-10T09:26:56.946Z,16.92
2022-08-10T09:29:26.416Z,17.35
2022-08-10T09:36:17.012Z,17.23
2022-08-10T09:36:23.163Z,16.92
2022-08-10T09:38:36.391Z,17.73
2022-08-10T09:41:40.062Z,17.00
2022-08-10T09:44:58.113Z,16.77
2022-08-10T09:48:02.372Z,15.70
2022-08-10T09:51:43.594Z,16.80
2022-08-10T09:54:22.500Z,16.15
2022-08-10T09:57:44.552Z,14.50
2022-08-10T10:00:12.864Z,14.27
2022-08-10T10:02:52.801Z,15.57
2022-08-10T10:05:50.351Z,16.02
2022-08-10T10:08:30.510Z,15.43
2022-08-10T10:11:35.460Z,14.82
2022-08-10T10:14:12.848Z,15.15
2022-08-10T10:16:52.398Z,14.98
2022-08-10T10:19:44.115Z,14.48
2022-08-10T10:22:32.419Z,14.93
2022-08-10T10:25:19.949Z,14.90
2022-08-10T10:27:57.195Z,15.52
2022-08-10T10:30:25.060Z,14.63
2022-08-10T10:33:15.385Z,14.55
2022-08-10T10:35:55.177Z,14.73
2022-08-10T10:38:27.097Z,14.52
2022-08-10T10:41:21.575Z,14.77
2022-08-10T10:43:56.964Z,13.70
2022-08-10T10:46:38.479Z,13.55
2022-08-10T10:49:27.627Z,13.88
2022-08-10T10:52:15.149Z,14.07
2022-08-10T10:55:22.499Z,14.25
2022-08-10T10:58:05.531Z,15.68
2022-08-10T11:00:51.255Z,14.23
2022-08-10T11:03:33.980Z,15.07
2022-08-10T11:06:39.749Z,13.77
2022-08-10T11:10:05.450Z,14.25
2022-08-10T11:13:05.349Z,13.45
2022-08-10T11:16:09.648Z,13.02
2022-08-10T11:18:55.710Z,13.80
2022-08-10T11:21:53.486Z,12.80
2022-08-10T11:24:48.583Z,13.18
2022-08-10T11:27:41.262Z,11.70
2022-08-10T11:32:45.819Z,11.80
2022-08-10T11:35:37.310Z,10.82
2022-08-10T11:38:30.926Z,11.18
2022-08-10T11:42:09.752Z,11.87
2022-08-10T11:44:20.595Z,11.13
2022-08-10T11:46:57.110Z,11.27
2022-08-10T11:49:42.890Z,12.32
2022-08-10T11:52:13.846Z,10.35
2022-08-10T11:54:47.755Z,11.52
2022-08-10T11:57:18.870Z,11.40
2022-08-10T11:59:59.310Z,10.47
2022-08-10T12:02:33.292Z,11.68
2022-08-10T12:05:08.237Z,11.25
2022-08-10T12:10:02.911Z,10.93
2022-08-10T12:10:28.011Z,10.52
2022-08-10T12:13:07.315Z,11.02
2022-08-10T12:15:48.599Z,9.90
2022-08-10T12:18:20.355Z,9.70
2022-08-10T12:20:51.813Z,10.38
2022-08-10T12:26:09.429Z,10.07
2022-08-10T12:28:55.854Z,11.27
2022-08-10T12:31:39.126Z,10.85
2022-08-10T12:34:12.770Z,10.80
2022-08-10T12:36:42.429Z,10.45
2022-08-10T12:39:22.550Z,10.15
2022-08-10T12:41:57.218Z,10.45
2022-08-10T12:44:41.782Z,10.65
2022-08-10T12:47:37.275Z,12.05
2022-08-10T12:50:33.004Z,11.30
2022-08-10T12:53:06.832Z,12.30
2022-08-10T12:55:37.894Z,11.15
2022-08-10T12:58:58.387Z,12.18
2022-08-10T13:01:14.622Z,14.48
2022-08-10T13:04:21.633Z,12.00
2022-08-10T13:06:29.969Z,11.73
2022-08-10T13:09:10.643Z,12.98
2022-08-10T13:12:37.411Z,13.63
2022-08-10T13:14:50.913Z,12.60
2022-08-10T13:17:25.021Z,13.65
2022-08-10T13:20:15.253Z,13.90
2022-08-10T13:22:43.276Z,14.60
2022-08-10T13:25:11.123Z,15.38
2022-08-10T13:28:00.897Z,15.10
2022-08-10T13:30:38.000Z,15.60
2022-08-10T13:33:10.490Z,16.13
2022-08-10T13:35:38.319Z,16.30
2022-08-10T13:38:07.003Z,16.73
2022-08-10T13:40:35.660Z,16.17
2022-08-10T13:43:07.069Z,17.20
2022-08-10T13:45:43.987Z,17.02
2022-08-10T13:48:23.089Z,17.63
2022-08-10T13:50:55.933Z,16.55
2022-08-10T13:53:24.175Z,16.98
2022-08-10T13:55:56.380Z,16.30
2022-08-10T13:58:28.009Z,16.80
2022-08-10T14:00:57.052Z,16.88
2022-08-10T14:03:24.863Z,16.67
2022-08-10T14:05:53.803Z,16.02
2022-08-10T14:08:27.277Z,15.95
2022-08-10T14:11:11.850Z,16.58
2022-08-10T14:13:43.382Z,16.00
2022-08-10T14:16:11.258Z,15.98
2022-08-10T14:18:38.924Z,15.50
2022-08-10T14:21:06.930Z,15.55
2022-08-10T14:23:40.700Z,15.35
2022-08-10T14:26:09.454Z,15.82
2022-08-10T14:28:40.669Z,16.92
2022-08-10T14:31:10.755Z,15.82
2022-08-10T14:33:38.917Z,16.48
2022-08-10T14:36:23.783Z,16.65
2022-08-10T14:38:53.134Z,15.45
2022-08-10T14:42:03.074Z,16.38
2022-08-10T14:44:15.511Z,16.67
2022-08-10T14:46:46.220Z,16.52
2022-08-10T14:49:25.345Z,15.68
2022-08-10T14:52:01.970Z,16.90
2022-08-10T14:54:32.434Z,16.70
2022-08-10T14:57:11.129Z,16.80
2022-08-10T15:00:21.098Z,17.15
2022-08-10T15:02:38.775Z,17.17
2022-08-10T15:05:17.874Z,16.67
2022-08-10T15:07:58.709Z,16.88
2022-08-10T15:10:27.915Z,16.58
2022-08-10T15:12:58.886Z,16.70
2022-08-10T15:15:28.150Z,16.83
2022-08-10T15:17:58.242Z,17.33
2022-08-10T15:20:27.910Z,15.70
2022-08-10T15:23:00.366Z,15.98
2022-08-10T15:25:28.930Z,15.57
2022-08-10T15:28:06.590Z,15.23
2022-08-10T15:30:43.255Z,16.55
2022-08-10T15:34:04.514Z,15.73
2022-08-10T15:37:02.017Z,16.08
2022-08-10T15:40:21.199Z,15.60
2022-08-10T15:42:34.929Z,16.90
2022-08-10T15:45:02.877Z,15.30
2022-08-10T15:47:45.286Z,16.27
2022-08-10T15:50:24.189Z,16.67
2022-08-10T15:53:03.379Z,15.95
2022-08-10T15:55:41.187Z,16.20
2022-08-10T15:58:19.284Z,16.30
2022-08-10T16:01:02.634Z,15.50
2022-08-10T16:03:38.409Z,16.08
2022-08-10T16:06:07.213Z,15.80
2022-08-10T16:08:55.745Z,15.95
2022-08-10T16:11:37.936Z,16.58
2022-08-10T16:14:18.118Z,15.68
2022-08-10T16:16:50.623Z,15.45
2022-08-10T16:19:23.851Z,15.98
2022-08-10T16:22:02.379Z,16.15
2022-08-10T16:24:31.575Z,15.30
2022-08-10T16:27:01.979Z,16.30
2022-08-10T16:29:29.824Z,17.52
2022-08-10T16:31:59.935Z,17.75
2022-08-10T16:34:28.731Z,18.87
2022-08-10T16:36:58.275Z,18.70
2022-08-10T16:39:57.987Z,18.23
2022-08-10T16:42:23.796Z,17.00
2022-08-10T16:45:13.847Z,18.25
2022-08-10T16:47:47.058Z,19.60
2022-08-10T16:50:17.126Z,19.92
2022-08-10T16:52:44.896Z,19.67
2022-08-10T16:55:27.068Z,21.10
2022-08-10T16:58:05.830Z,20.77
2022-08-10T17:00:33.521Z,20.02
2022-08-10T17:03:22.744Z,20.52
2022-08-10T17:06:09.492Z,21.15
2022-08-10T17:08:48.187Z,20.00
2022-08-10T17:11:17.458Z,20.73
2022-08-10T17:13:45.443Z,20.08
2022-08-10T17:16:13.235Z,22.05
2022-08-10T17:18:41.962Z,23.15
2022-08-10T17:21:20.287Z,24.73
2022-08-10T17:23:53.172Z,24.92
2022-08-10T17:26:35.269Z,23.75
2022-08-10T17:29:53.452Z,24.85
2022-08-10T17:32:20.020Z,28.15
2022-08-10T17:34:50.288Z,28.55
2022-08-10T17:37:20.543Z,29.27
2022-08-10T17:39:50.350Z,24.30
2022-08-10T17:42:22.164Z,22.92
2022-08-10T17:44:51.950Z,21.95
2022-08-10T17:47:19.816Z,20.60
2022-08-10T17:49:48.036Z,17.90
2022-08-10T17:52:20.403Z,17.77
2022-08-10T17:54:55.514Z,16.58
2022-08-10T17:57:23.629Z,15.70
2022-08-10T17:59:51.791Z,15.82
2022-08-10T18:02:28.561Z,15.40
2022-08-10T18:04:59.329Z,15.32
2022-08-10T18:07:35.625Z,14.82
2022-08-10T18:10:04.595Z,15.68
2022-08-10T18:12:38.914Z,14.52
2022-08-10T18:15:12.171Z,14.45
2022-08-10T18:17:44.200Z,14.98
2022-08-10T18:20:11.959Z,13.60
2022-08-10T18:22:47.218Z,14.77
2022-08-10T18:25:35.404Z,14.48
2022-08-10T18:28:05.437Z,14.68
2022-08-10T18:33:08.852Z,15.07
2022-08-10T18:35:36.982Z,15.02
2022-08-10T18:38:04.737Z,14.40
2022-08-10T18:40:35.414Z,15.05
2022-08-10T18:44:07.125Z,15.25
2022-08-10T18:45:57.267Z,14.55
2022-08-10T18:48:27.216Z,14.63
2022-08-10T18:50:55.138Z,15.25
2022-08-10T18:53:30.466Z,15.18
2022-08-10T18:56:32.882Z,15.23
2022-08-10T18:59:09.161Z,15.73
2022-08-10T19:02:05.527Z,14.80
2022-08-10T19:05:01.195Z,15.02
2022-08-10T19:07:54.494Z,14.30
2022-08-10T19:10:34.527Z,15.30
2022-08-10T19:13:08.400Z,15.40
2022-08-10T19:15:45.787Z,15.45
2022-08-10T19:18:37.754Z,14.73
2022-08-10T19:21:21.931Z,14.63
2022-08-10T19:23:58.206Z,14.77
2022-08-10T19:26:46.996Z,15.00
2022-08-10T19:30:09.036Z,14.60
2022-08-10T19:32:27.605Z,15.35
2022-08-10T19:35:05.163Z,14.07
2022-08-10T19:37:45.224Z,13.85
2022-08-10T19:40:56.070Z,13.93
2022-08-10T19:44:01.826Z,14.35
2022-08-10T19:46:38.151Z,14.48
2022-08-10T19:51:59.261Z,14.85
2022-08-10T19:54:55.190Z,14.88
2022-08-10T19:57:37.872Z,14.25
2022-08-10T20:00:23.044Z,14.05
2022-08-10T20:03:21.369Z,14.95
2022-08-10T20:06:18.858Z,15.02
2022-08-10T20:08:56.986Z,14.77
2022-08-10T20:11:44.798Z,15.30
2022-08-10T20:14:22.811Z,15.00
2022-08-10T20:16:55.881Z,14.70
2022-08-10T20:19:53.198Z,15.07
2022-08-10T20:22:19.544Z,14.07
2022-08-10T20:25:30.056Z,14.65
2022-08-10T20:28:11.967Z,14.30
2022-08-10T20:30:44.841Z,14.60
2022-08-10T20:33:14.716Z,15.65
2022-08-10T20:35:53.805Z,14.15
2022-08-10T20:38:33.002Z,14.38
2022-08-10T20:41:09.262Z,13.30
2022-08-10T20:44:00.963Z,14.48
2022-08-10T20:46:35.983Z,15.00
2022-08-10T20:49:18.613Z,14.65
2022-08-10T20:51:58.158Z,14.10
2022-08-10T20:54:37.024Z,14.73
2022-08-10T20:57:55.721Z,14.70
2022-08-10T21:00:13.097Z,15.18
2022-08-10T21:03:06.870Z,15.45
2022-08-10T21:05:55.226Z,14.77
2022-08-10T21:08:46.003Z,13.85
2022-08-10T21:11:38.282Z,13.82
2022-08-10T21:14:33.788Z,14.68
2022-08-10T21:17:50.860Z,15.25
2022-08-10T21:20:45.121Z,14.07
2022-08-10T21:23:15.290Z,15.02
2022-08-10T21:25:49.702Z,14.75
2022-08-10T21:29:37.884Z,14.77
2022-08-10T21:32:29.736Z,14.30
2022-08-10T21:35:36.541Z,14.32
2022-08-10T21:38:47.371Z,14.50
2022-08-10T21:41:57.480Z,14.98
2022-08-10T21:45:08.110Z,14.85
2022-08-10T21:48:06.576Z,14.73
2022-08-10T21:51:00.873Z,15.18
2022-08-10T21:54:03.202Z,15.10
2022-08-10T21:57:01.359Z,16.23
2022-08-10T21:59:56.636Z,14.98
2022-08-10T22:02:49.833Z,16.13
2022-08-10T22:05:43.314Z,15.82
2022-08-10T22:08:29.845Z,16.10
2022-08-10T22:11:16.284Z,16.70
2022-08-10T22:14:06.617Z,16.33
2022-08-10T22:17:59.054Z,17.23
2022-08-10T22:20:38.568Z,17.25
2022-08-10T22:23:40.760Z,16.13
2022-08-10T22:27:00.725Z,16.25
2022-08-10T22:30:01.491Z,15.23
2022-08-10T22:32:53.698Z,16.83
2022-08-10T22:36:12.111Z,16.33
2022-08-10T22:39:17.147Z,15.93
2022-08-10T22:42:27.697Z,16.38
2022-08-10T22:45:14.111Z,17.00
2022-08-10T22:48:05.503Z,16.80
2022-08-10T22:50:33.502Z,16.88
2022-08-10T22:53:06.054Z,17.23
2022-08-10T22:55:54.986Z,17.30
2022-08-10T22:58:40.372Z,16.90
2022-08-10T23:02:07.277Z,16.88
2022-08-10T23:04:41.416Z,16.35
2022-08-10T23:07:19.444Z,17.83
2022-08-10T23:09:52.156Z,18.02
2022-08-10T23:12:37.725Z,18.13
2022-08-10T23:15:25.653Z,17.90
2022-08-10T23:18:13.932Z,19.08
2022-08-10T23:20:41.997Z,17.30
2022-08-10T23:23:11.510Z,18.00
2022-08-10T23:25:57.096Z,18.17
2022-08-10T23:28:38.954Z,19.05
2022-08-10T23:31:14.884Z,18.63
2022-08-10T23:33:42.997Z,17.13
2022-08-10T23:36:33.385Z,18.63
2022-08-10T23:39:26.324Z,18.38
2022-08-10T23:41:52.977Z,17.35
2022-08-10T23:44:21.364Z,17.42
2022-08-10T23:46:49.014Z,18.02
2022-08-10T23:49:16.801Z,18.20
2022-08-10T23:51:55.659Z,17.80
2022-08-10T23:54:25.522Z,17.33
2022-08-10T23:57:01.455Z,18.15
2022-08-10T23:59:31.915Z,18.55
